createdAt,value
2023-04-26T00:00:10.310Z,2.38
2023-04-26T00:05:14.861Z,3.10
2023-04-26T00:10:17.968Z,3.03
2023-04-26T00:15:22.553Z,1.80
2023-04-26T00:20:25.291Z,1.80
2023-04-26T00:25:34.120Z,4.28
2023-04-26T00:30:41.522Z,2.65
2023-04-26T00:35:47.716Z,3.13
2023-04-26T00:40:51.092Z,2.95
2023-04-26T00:45:54.422Z,2.10
2023-04-26T00:50:57.499Z,2.40
2023-04-26T00:56:00.578Z,3.60
2023-04-26T01:01:03.621Z,3.28
2023-04-26T01:06:06.869Z,5.43
2023-04-26T01:11:12.984Z,4.78
2023-04-26T01:16:16.632Z,3.70
2023-04-26T01:21:23.613Z,5.50
2023-04-26T01:26:27.529Z,5.18
2023-04-26T01:31:30.330Z,4.13
2023-04-26T01:36:33.984Z,2.85
2023-04-26T01:41:37.107Z,2.88
2023-04-26T01:46:40.016Z,2.95
2023-04-26T01:51:42.997Z,3.40
2023-04-26T01:56:45.811Z,2.35
2023-04-26T02:01:48.988Z,2.55
2023-04-26T02:06:51.949Z,2.92
2023-04-26T02:11:54.892Z,2.67
2023-04-26T02:17:01.970Z,7.57
2023-04-26T02:22:06.767Z,3.10
2023-04-26T02:27:09.640Z,3.13
2023-04-26T02:32:13.522Z,2.30
2023-04-26T02:37:16.466Z,2.38
2023-04-26T02:42:19.534Z,1.10
2023-04-26T02:47:23.152Z,1.60
2023-04-26T02:52:26.131Z,2.17
2023-04-26T02:57:29.139Z,1.70
2023-04-26T03:02:32.083Z,1.33
2023-04-26T03:07:35.236Z,1.63
2023-04-26T03:12:38.303Z,2.03
2023-04-26T03:17:41.421Z,1.17
2023-04-26T03:22:47.861Z,1.00
2023-04-26T03:27:50.817Z,1.00
2023-04-26T03:32:54.239Z,1.13
2023-04-26T03:37:58.597Z,0.90
2023-04-26T03:43:03.324Z,0.50
2023-04-26T03:48:06.341Z,0.60
2023-04-26T03:53:09.350Z,0.82
2023-04-26T03:58:13.202Z,0.90
2023-04-26T04:03:16.509Z,0.75
2023-04-26T04:08:19.708Z,0.40
2023-04-26T04:13:23.012Z,1.95
2023-04-26T04:18:26.730Z,0.40
2023-04-26T04:23:30.160Z,0.47
2023-04-26T04:28:34.757Z,0.50
2023-04-26T04:33:38.045Z,0.68
2023-04-26T04:38:42.148Z,0.77
2023-04-26T04:43:46.811Z,0.40
2023-04-26T04:48:50.111Z,0.40
2023-04-26T04:53:55.115Z,0.70
2023-04-26T04:59:19.613Z,0.40
2023-04-26T05:04:24.425Z,0.55
2023-04-26T05:09:30.376Z,0.60
2023-04-26T05:14:33.321Z,0.60
2023-04-26T05:19:36.199Z,0.50
2023-04-26T05:24:39.411Z,0.40
2023-04-26T05:29:42.477Z,0.47
2023-04-26T05:40:20.683Z,0.60
2023-04-26T05:45:23.725Z,0.55
2023-04-26T05:50:26.728Z,0.40
2023-04-26T05:55:29.550Z,0.50
2023-04-26T06:00:33.510Z,0.98
2023-04-26T06:05:39.068Z,0.60
2023-04-26T06:10:42.183Z,0.30
2023-04-26T06:15:45.275Z,0.47
2023-04-26T06:20:48.243Z,0.30
2023-04-26T06:25:51.178Z,0.47
2023-04-26T06:30:54.817Z,0.50
2023-04-26T06:35:58.160Z,0.47
2023-04-26T06:41:00.951Z,0.65
2023-04-26T06:46:04.415Z,0.70
2023-04-26T06:51:08.182Z,0.57
2023-04-26T06:56:13.677Z,0.60
2023-04-26T07:06:19.562Z,1.20
2023-04-26T07:11:24.606Z,0.43
2023-04-26T07:16:28.918Z,0.60
2023-04-26T07:21:31.725Z,0.73
2023-04-26T07:26:35.795Z,0.50
2023-04-26T07:31:38.549Z,0.65
2023-04-26T07:36:41.346Z,0.68
2023-04-26T07:41:44.314Z,0.52
2023-04-26T07:46:47.160Z,0.85
2023-04-26T07:51:52.181Z,0.65
2023-04-26T07:56:55.908Z,0.80
2023-04-26T08:01:58.802Z,2.10
2023-04-26T08:07:04.564Z,1.88
2023-04-26T08:12:07.933Z,0.60
2023-04-26T08:17:10.818Z,0.80
2023-04-26T08:22:13.635Z,2.70
2023-04-26T08:27:16.555Z,0.90
2023-04-26T08:32:19.407Z,1.45
2023-04-26T08:37:22.638Z,1.52
2023-04-26T08:42:28.561Z,1.40
2023-04-26T08:47:57.619Z,0.75
2023-04-26T08:53:00.387Z,0.50
2023-04-26T08:58:03.227Z,0.68
2023-04-26T09:03:06.268Z,1.08
2023-04-26T09:08:09.900Z,0.98
2023-04-26T09:13:12.810Z,0.63
2023-04-26T09:18:23.146Z,1.20
2023-04-26T09:23:25.892Z,0.80
2023-04-26T09:28:28.969Z,0.65
2023-04-26T09:33:31.782Z,0.80
2023-04-26T09:38:42.695Z,1.42
2023-04-26T09:43:45.804Z,1.80
2023-04-26T09:49:01.628Z,1.77
2023-04-26T09:54:04.725Z,0.80
2023-04-26T09:59:09.302Z,0.75
2023-04-26T10:04:12.137Z,0.80
2023-04-26T10:09:16.294Z,1.05
2023-04-26T10:14:19.487Z,1.52
2023-04-26T10:19:22.722Z,1.33
2023-04-26T10:24:27.153Z,0.80
2023-04-26T10:29:55.429Z,0.85
2023-04-26T10:35:18.239Z,0.70
2023-04-26T10:40:26.088Z,1.80
2023-04-26T10:45:30.554Z,1.30
2023-04-26T10:50:33.367Z,1.30
2023-04-26T10:55:45.208Z,1.58
2023-04-26T11:01:10.099Z,2.17
2023-04-26T11:06:16.053Z,1.75
2023-04-26T11:11:21.691Z,2.85
2023-04-26T11:16:29.477Z,1.70
2023-04-26T11:21:33.136Z,2.53
2023-04-26T11:26:37.007Z,2.17
2023-04-26T11:31:39.796Z,1.70
2023-04-26T11:36:42.649Z,1.10
2023-04-26T11:41:45.725Z,2.33
2023-04-26T11:46:49.686Z,1.73
2023-04-26T11:51:52.637Z,1.30
2023-04-26T11:56:55.616Z,2.03
2023-04-26T12:01:58.845Z,2.88
2023-04-26T12:07:04.774Z,1.90
2023-04-26T12:12:07.718Z,1.95
2023-04-26T12:17:10.905Z,3.83
2023-04-26T12:22:22.255Z,2.50
2023-04-26T12:27:25.070Z,2.95
2023-04-26T12:32:28.419Z,1.65
2023-04-26T12:37:31.515Z,1.40
2023-04-26T12:42:36.463Z,2.55
2023-04-26T12:47:39.337Z,0.90
2023-04-26T12:52:43.959Z,1.38
2023-04-26T12:57:47.194Z,3.47
2023-04-26T13:02:50.237Z,2.70
2023-04-26T13:07:53.050Z,1.92
2023-04-26T13:12:56.315Z,2.13
2023-04-26T13:17:59.122Z,2.13
2023-04-26T13:23:02.002Z,1.90
2023-04-26T13:28:05.189Z,2.88
2023-04-26T13:33:08.335Z,5.03
2023-04-26T13:38:12.452Z,6.60
2023-04-26T13:43:16.218Z,4.00
2023-04-26T13:48:22.056Z,7.45
2023-04-26T13:58:27.815Z,5.15
2023-04-26T14:03:30.931Z,3.88
2023-04-26T14:08:33.899Z,3.50
2023-04-26T14:13:36.734Z,2.75
2023-04-26T14:18:45.354Z,1.38
2023-04-26T14:23:48.170Z,1.23
2023-04-26T14:28:51.144Z,2.05
2023-04-26T14:33:54.333Z,4.05
2023-04-26T14:38:57.291Z,4.00
2023-04-26T14:44:00.150Z,4.95
2023-04-26T14:49:03.249Z,6.70
2023-04-26T14:54:06.422Z,7.45
2023-04-26T14:59:09.184Z,7.47
2023-04-26T15:04:12.237Z,5.28
2023-04-26T15:09:15.365Z,7.40
2023-04-26T15:14:18.058Z,8.55
2023-04-26T15:19:22.530Z,8.90
2023-04-26T15:24:26.541Z,9.70
2023-04-26T15:29:32.182Z,10.80
2023-04-26T15:34:46.107Z,8.73
2023-04-26T15:39:48.990Z,9.02
2023-04-26T15:44:51.780Z,9.48
2023-04-26T15:49:55.458Z,9.93
2023-04-26T15:54:58.228Z,10.25
2023-04-26T16:00:01.205Z,11.20
2023-04-26T16:05:08.633Z,14.50
2023-04-26T16:10:14.547Z,12.57
2023-04-26T16:15:17.467Z,13.90
2023-04-26T16:20:20.487Z,15.63
2023-04-26T16:25:24.241Z,14.25
2023-04-26T16:30:27.297Z,17.60
2023-04-26T16:35:30.031Z,20.15
2023-04-26T16:40:33.319Z,19.42
2023-04-26T16:45:36.419Z,17.77
2023-04-26T16:50:39.433Z,18.25
2023-04-26T16:55:42.411Z,20.20
2023-04-26T17:00:45.445Z,18.48
2023-04-26T17:05:51.831Z,20.02
2023-04-26T17:10:54.729Z,24.15
2023-04-26T17:15:57.854Z,22.98
2023-04-26T17:21:02.102Z,20.17
2023-04-26T17:26:04.977Z,19.70
2023-04-26T17:31:07.902Z,20.50
2023-04-26T17:36:11.225Z,20.23
2023-04-26T17:41:14.083Z,20.95
2023-04-26T17:46:16.953Z,20.48
2023-04-26T17:51:19.830Z,22.58
2023-04-26T17:56:23.340Z,22.88
2023-04-26T18:01:26.861Z,21.90
2023-04-26T18:06:29.796Z,23.70
2023-04-26T18:11:32.740Z,23.35
2023-04-26T18:16:35.627Z,20.80
2023-04-26T18:21:38.431Z,20.50
2023-04-26T18:26:41.949Z,22.67
2023-04-26T18:31:44.794Z,22.38
2023-04-26T18:36:47.936Z,21.67
2023-04-26T18:41:52.491Z,19.20
2023-04-26T18:46:58.192Z,22.60
2023-04-26T18:52:02.057Z,18.55
2023-04-26T18:57:05.112Z,20.65
2023-04-26T19:02:26.689Z,21.73
2023-04-26T19:07:29.618Z,18.95
2023-04-26T19:12:32.302Z,19.38
2023-04-26T19:17:35.206Z,19.27
2023-04-26T19:22:38.078Z,19.77
2023-04-26T19:27:41.559Z,19.20
2023-04-26T19:32:44.362Z,16.05
2023-04-26T19:37:47.127Z,14.48
2023-04-26T19:42:50.052Z,12.50
2023-04-26T19:47:52.901Z,11.38
2023-04-26T19:52:55.923Z,13.30
2023-04-26T19:57:59.767Z,12.27
2023-04-26T20:03:03.237Z,9.18
2023-04-26T20:08:06.334Z,8.50
2023-04-26T20:13:09.375Z,8.50
2023-04-26T20:18:12.388Z,8.52
2023-04-26T20:23:15.367Z,7.63
2023-04-26T20:28:18.189Z,8.25
2023-04-26T20:33:21.611Z,7.45
2023-04-26T20:38:24.523Z,6.82
2023-04-26T20:43:27.307Z,6.90
2023-04-26T20:48:29.966Z,6.18
2023-04-26T20:53:32.792Z,6.80
2023-04-26T20:58:35.578Z,6.32
2023-04-26T21:03:39.450Z,6.55
2023-04-26T21:08:43.449Z,5.80
2023-04-26T21:13:47.483Z,5.68
2023-04-26T21:18:50.318Z,5.82
2023-04-26T21:23:53.112Z,6.88
2023-04-26T21:28:56.219Z,6.95
2023-04-26T21:33:59.320Z,6.63
2023-04-26T21:39:02.375Z,6.82
2023-04-26T21:44:05.433Z,5.50
2023-04-26T21:49:08.644Z,5.60
2023-04-26T21:54:11.755Z,6.78
2023-04-26T21:59:15.668Z,6.60
2023-04-26T22:04:18.750Z,6.72
2023-04-26T22:09:22.117Z,6.85
2023-04-26T22:14:25.203Z,6.68
2023-04-26T22:19:28.003Z,5.60
2023-04-26T22:24:30.982Z,5.70
2023-04-26T22:29:34.184Z,5.10
2023-04-26T22:34:37.055Z,5.15
2023-04-26T22:39:39.987Z,5.13
2023-04-26T22:44:42.960Z,5.35
2023-04-26T22:49:46.183Z,5.35
2023-04-26T22:54:50.458Z,5.25
2023-04-26T22:59:53.205Z,5.40
2023-04-26T23:04:56.223Z,5.55
2023-04-26T23:09:59.230Z,4.97
2023-04-26T23:15:03.194Z,6.80
2023-04-26T23:20:12.548Z,5.25
2023-04-26T23:25:15.806Z,4.35
2023-04-26T23:30:19.122Z,4.50
2023-04-26T23:35:22.283Z,4.18
2023-04-26T23:40:25.474Z,4.38
2023-04-26T23:45:28.663Z,3.90
2023-04-26T23:50:31.547Z,4.18
2023-04-26T23:55:34.594Z,3.83
